Home   Weather   Germany   Lünen   Past weeks
Flag for Germany

Past Weather in Lünen, North Rhine-Westphalia, Germany — Yesterday and Last 2 Weeks

Currently: 63 °F. Sunny. (Weather station: Dortmund / Wickede, Germany). See more current weather

Past Weather in Lünen — Graph

°F

Lünen Temperature Yesterday

Maximum temperature yesterday: 77 °F (at 5:50 pm)
Minimum temperature yesterday: 50 °F (at 4:20 am)
Average temperature yesterday: 65 °F

High & Low Weather Summary for the Past Weeks

 TemperatureHumidityPressure
High93 °F (Aug 4, 11:50 am)100% (Aug 1, 2:50 am)30.36 "Hg (Aug 1, 2:50 am)
Low46 °F (Aug 6, 5:50 am)26% (Aug 4, 1:20 pm)29.77 "Hg (Jul 25, 9:20 am)
Average69 °F62%30.05 "Hg
* Reported Jul 24 8:20 am — Aug 8 8:50 am, Lünen. Weather by CustomWeather, © 2022

Note: Actual official high and low records may vary slightly from our data, if they occured in-between our weather recording intervals... More about our weather records

Lünen Weather History for the Previous 24 Hours

Scroll right to see more
 ConditionsComfort  
Time TempWeatherWind HumidityBarometerVisibility
8:50 am
Mon, Aug 8
61 °FSunny.1 mph68%30.27 "Hg10 mi
8:20 am59 °FSunny.No wind72%30.24 "Hg10 mi
7:50 am57 °FSunny.5 mph77%30.24 "Hg10 mi
7:20 am55 °FSunny.2 mph82%30.24 "Hg10 mi
6:50 am54 °FSunny.2 mph82%30.24 "Hg10 mi
6:20 am54 °FSunny.2 mph82%30.24 "Hg10 mi
5:50 am54 °FClear.No wind82%30.24 "Hg10 mi
5:20 am54 °FClear.No wind82%30.24 "Hg10 mi
4:50 am54 °FClear.No wind77%30.21 "HgN/A
4:20 am54 °FClear.2 mph82%30.24 "HgN/A
3:20 am55 °FClear.No wind72%30.24 "HgN/A
2:50 am55 °FClear.1 mph72%30.24 "HgN/A
1:20 am59 °FClear.2 mph63%30.24 "HgN/A
12:50 am61 °FClear.2 mph59%30.21 "HgN/A
12:20 am61 °FClear.No wind59%30.21 "HgN/A
11:20 pm
Sun, Aug 7
63 °FClear.No wind56%30.21 "HgN/A
10:50 pm63 °FClear.No wind56%30.21 "HgN/A
10:20 pm64 °FClear.1 mph52%30.21 "HgN/A
9:50 pm64 °FClear.No wind52%30.21 "HgN/A
9:20 pm66 °FClear.2 mph49%30.21 "Hg10 mi
8:50 pm70 °FPassing clouds.5 mph43%30.18 "HgN/A
8:20 pm72 °FPassing clouds.5 mph38%30.18 "HgN/A
7:50 pm72 °FPassing clouds.7 mph38%30.18 "HgN/A
7:20 pm75 °FPassing clouds.5 mph34%30.18 "HgN/A
6:50 pm75 °FPassing clouds.6 mph34%30.18 "HgN/A
6:20 pm75 °FPassing clouds.6 mph34%30.18 "HgN/A
5:50 pm77 °FSunny.5 mph30%30.18 "Hg10 mi
5:20 pm75 °FSunny.3 mph31%30.18 "Hg10 mi
4:50 pm75 °FPassing clouds.6 mph29%30.21 "HgN/A
4:20 pm75 °FSunny.5 mph29%30.21 "Hg10 mi
3:50 pm75 °FSunny.7 mph29%30.21 "Hg10 mi
3:20 pm75 °FPassing clouds.6 mph29%30.21 "HgN/A
2:50 pm75 °FSunny.5 mph31%30.21 "Hg10 mi
2:20 pm75 °FPassing clouds.7 mph31%30.24 "HgN/A
1:50 pm75 °FPassing clouds.6 mph34%30.24 "HgN/A
1:20 pm73 °FPassing clouds.6 mph33%30.24 "HgN/A
12:20 pm72 °FPassing clouds.6 mph36%30.24 "HgN/A
11:50 am72 °FPassing clouds.7 mph36%30.27 "HgN/A
11:20 am72 °FSunny.5 mph41%30.27 "Hg10 mi
10:50 am68 °FSunny.5 mph46%30.27 "Hg10 mi
10:20 am66 °FPassing clouds.3 mph52%30.27 "HgN/A
Weather by CustomWeather, © 2022

See weather overview